sensor_id;sensor_type;location;lat;lon;timestamp;P1;durP1;ratioP1;P2;durP2;ratioP2
44606;SDS011;30315;46.072;14.474;2023-04-03T00:00:53;1.38;;;1.27;;
44606;SDS011;30315;46.072;14.474;2023-04-03T00:03:19;2.03;;;1.92;;
44606;SDS011;30315;46.072;14.474;2023-04-03T00:05:47;1.50;;;1.40;;
44606;SDS011;30315;46.072;14.474;2023-04-03T00:08:14;1.27;;;1.25;;
44606;SDS011;30315;46.072;14.474;2023-04-03T00:10:41;2.05;;;1.73;;
44606;SDS011;30315;46.072;14.474;2023-04-03T00:13:08;1.40;;;1.40;;
44606;SDS011;30315;46.072;14.474;2023-04-03T00:15:36;1.38;;;1.38;;
44606;SDS011;30315;46.072;14.474;2023-04-03T00:18:04;1.88;;;1.77;;
44606;SDS011;30315;46.072;14.474;2023-04-03T00:20:31;1.70;;;1.60;;
44606;SDS011;30315;46.072;14.474;2023-04-03T00:23:00;1.77;;;1.67;;
44606;SDS011;30315;46.072;14.474;2023-04-03T00:25:27;1.65;;;1.55;;
44606;SDS011;30315;46.072;14.474;2023-04-03T00:27:54;1.90;;;1.80;;
44606;SDS011;30315;46.072;14.474;2023-04-03T00:30:22;1.45;;;1.45;;
44606;SDS011;30315;46.072;14.474;2023-04-03T00:32:49;1.90;;;1.80;;
44606;SDS011;30315;46.072;14.474;2023-04-03T00:35:18;1.95;;;1.85;;
44606;SDS011;30315;46.072;14.474;2023-04-03T00:37:46;1.85;;;1.75;;
44606;SDS011;30315;46.072;14.474;2023-04-03T00:40:14;1.70;;;1.60;;
44606;SDS011;30315;46.072;14.474;2023-04-03T00:42:42;1.95;;;1.85;;
44606;SDS011;30315;46.072;14.474;2023-04-03T00:47:37;2.10;;;2.00;;
44606;SDS011;30315;46.072;14.474;2023-04-03T00:50:05;2.00;;;1.90;;
44606;SDS011;30315;46.072;14.474;2023-04-03T00:52:33;2.17;;;2.03;;
44606;SDS011;30315;46.072;14.474;2023-04-03T00:55:02;2.00;;;1.90;;
44606;SDS011;30315;46.072;14.474;2023-04-03T00:57:32;2.53;;;2.22;;
44606;SDS011;30315;46.072;14.474;2023-04-03T01:00:02;2.15;;;2.05;;
44606;SDS011;30315;46.072;14.474;2023-04-03T01:02:33;2.10;;;2.00;;
44606;SDS011;30315;46.072;14.474;2023-04-03T01:05:00;2.67;;;2.47;;
44606;SDS011;30315;46.072;14.474;2023-04-03T01:07:28;3.15;;;2.70;;
44606;SDS011;30315;46.072;14.474;2023-04-03T01:09:57;2.30;;;2.20;;
44606;SDS011;30315;46.072;14.474;2023-04-03T01:12:31;2.63;;;2.53;;
44606;SDS011;30315;46.072;14.474;2023-04-03T01:15:08;2.67;;;2.47;;
44606;SDS011;30315;46.072;14.474;2023-04-03T01:17:45;3.05;;;2.85;;
44606;SDS011;30315;46.072;14.474;2023-04-03T01:28:08;2.97;;;2.88;;
44606;SDS011;30315;46.072;14.474;2023-04-03T01:30:49;3.45;;;2.67;;
44606;SDS011;30315;46.072;14.474;2023-04-03T01:33:20;2.67;;;2.47;;
44606;SDS011;30315;46.072;14.474;2023-04-03T01:35:48;3.10;;;2.90;;
44606;SDS011;30315;46.072;14.474;2023-04-03T01:38:15;2.88;;;2.67;;
44606;SDS011;30315;46.072;14.474;2023-04-03T01:40:42;3.00;;;2.80;;
44606;SDS011;30315;46.072;14.474;2023-04-03T01:43:09;3.10;;;2.90;;
44606;SDS011;30315;46.072;14.474;2023-04-03T01:45:36;3.22;;;3.03;;
44606;SDS011;30315;46.072;14.474;2023-04-03T01:48:04;2.80;;;2.60;;
44606;SDS011;30315;46.072;14.474;2023-04-03T01:50:31;2.83;;;2.63;;
44606;SDS011;30315;46.072;14.474;2023-04-03T01:52:58;3.08;;;2.88;;
44606;SDS011;30315;46.072;14.474;2023-04-03T01:55:25;3.15;;;2.88;;
44606;SDS011;30315;46.072;14.474;2023-04-03T01:57:52;2.85;;;2.75;;
44606;SDS011;30315;46.072;14.474;2023-04-03T02:00:19;2.70;;;2.60;;
44606;SDS011;30315;46.072;14.474;2023-04-03T02:02:46;3.20;;;3.00;;
44606;SDS011;30315;46.072;14.474;2023-04-03T02:05:13;2.53;;;2.42;;
44606;SDS011;30315;46.072;14.474;2023-04-03T02:07:40;2.80;;;2.70;;
44606;SDS011;30315;46.072;14.474;2023-04-03T02:10:07;3.13;;;2.92;;
44606;SDS011;30315;46.072;14.474;2023-04-03T02:12:34;2.65;;;2.55;;
44606;SDS011;30315;46.072;14.474;2023-04-03T02:15:01;2.95;;;2.75;;
44606;SDS011;30315;46.072;14.474;2023-04-03T02:20:30;2.90;;;2.70;;
44606;SDS011;30315;46.072;14.474;2023-04-03T02:22:58;2.67;;;2.55;;
44606;SDS011;30315;46.072;14.474;2023-04-03T02:25:26;3.08;;;2.88;;
44606;SDS011;30315;46.072;14.474;2023-04-03T02:27:52;2.78;;;2.67;;
44606;SDS011;30315;46.072;14.474;2023-04-03T02:30:19;3.05;;;2.85;;
44606;SDS011;30315;46.072;14.474;2023-04-03T02:32:46;2.58;;;2.47;;
44606;SDS011;30315;46.072;14.474;2023-04-03T02:35:14;3.42;;;2.80;;
44606;SDS011;30315;46.072;14.474;2023-04-03T02:37:41;2.28;;;2.17;;
44606;SDS011;30315;46.072;14.474;2023-04-03T02:40:08;2.20;;;2.10;;
44606;SDS011;30315;46.072;14.474;2023-04-03T02:42:38;2.78;;;2.67;;
44606;SDS011;30315;46.072;14.474;2023-04-03T02:45:05;2.63;;;2.42;;
44606;SDS011;30315;46.072;14.474;2023-04-03T02:47:32;3.03;;;2.83;;
44606;SDS011;30315;46.072;14.474;2023-04-03T02:49:59;3.13;;;2.92;;
44606;SDS011;30315;46.072;14.474;2023-04-03T02:52:26;3.03;;;2.83;;
44606;SDS011;30315;46.072;14.474;2023-04-03T02:54:56;2.70;;;2.60;;
44606;SDS011;30315;46.072;14.474;2023-04-03T02:57:23;2.90;;;2.70;;
44606;SDS011;30315;46.072;14.474;2023-04-03T02:59:50;2.90;;;2.70;;
44606;SDS011;30315;46.072;14.474;2023-04-03T03:02:17;2.67;;;2.58;;
44606;SDS011;30315;46.072;14.474;2023-04-03T03:04:44;3.33;;;3.13;;
44606;SDS011;30315;46.072;14.474;2023-04-03T03:07:11;2.83;;;2.63;;
44606;SDS011;30315;46.072;14.474;2023-04-03T03:09:38;3.42;;;2.80;;
44606;SDS011;30315;46.072;14.474;2023-04-03T03:12:04;3.35;;;3.15;;
44606;SDS011;30315;46.072;14.474;2023-04-03T03:14:31;3.00;;;2.80;;
44606;SDS011;30315;46.072;14.474;2023-04-03T03:16:58;2.83;;;2.72;;
44606;SDS011;30315;46.072;14.474;2023-04-03T03:19:25;3.30;;;3.10;;
44606;SDS011;30315;46.072;14.474;2023-04-03T03:21:52;3.08;;;2.88;;
44606;SDS011;30315;46.072;14.474;2023-04-03T03:24:19;2.75;;;2.60;;
44606;SDS011;30315;46.072;14.474;2023-04-03T03:26:46;3.30;;;3.00;;
44606;SDS011;30315;46.072;14.474;2023-04-03T03:29:14;3.40;;;3.20;;
44606;SDS011;30315;46.072;14.474;2023-04-03T03:31:41;3.15;;;2.95;;
44606;SDS011;30315;46.072;14.474;2023-04-03T03:34:08;3.17;;;2.97;;
44606;SDS011;30315;46.072;14.474;2023-04-03T03:36:35;3.20;;;3.00;;
44606;SDS011;30315;46.072;14.474;2023-04-03T03:39:02;2.97;;;2.78;;
44606;SDS011;30315;46.072;14.474;2023-04-03T03:41:29;3.13;;;2.92;;
44606;SDS011;30315;46.072;14.474;2023-04-03T03:43:57;2.97;;;2.70;;
44606;SDS011;30315;46.072;14.474;2023-04-03T03:46:26;3.38;;;3.17;;
44606;SDS011;30315;46.072;14.474;2023-04-03T03:48:53;3.10;;;2.90;;
44606;SDS011;30315;46.072;14.474;2023-04-03T03:51:20;3.20;;;3.00;;
44606;SDS011;30315;46.072;14.474;2023-04-03T03:53:48;2.75;;;2.50;;
44606;SDS011;30315;46.072;14.474;2023-04-03T03:56:17;2.97;;;2.78;;
44606;SDS011;30315;46.072;14.474;2023-04-03T03:58:45;3.72;;;3.50;;
44606;SDS011;30315;46.072;14.474;2023-04-03T04:01:12;3.10;;;3.00;;
44606;SDS011;30315;46.072;14.474;2023-04-03T04:03:44;2.83;;;2.72;;
44606;SDS011;30315;46.072;14.474;2023-04-03T04:06:16;3.70;;;3.42;;
44606;SDS011;30315;46.072;14.474;2023-04-03T04:08:43;3.05;;;2.85;;
44606;SDS011;30315;46.072;14.474;2023-04-03T04:11:12;3.03;;;2.83;;
44606;SDS011;30315;46.072;14.474;2023-04-03T04:13:40;3.28;;;2.95;;
44606;SDS011;30315;46.072;14.474;2023-04-03T04:16:10;3.30;;;3.10;;
44606;SDS011;30315;46.072;14.474;2023-04-03T04:18:37;3.13;;;3.00;;
44606;SDS011;30315;46.072;14.474;2023-04-03T04:21:04;2.80;;;2.60;;
44606;SDS011;30315;46.072;14.474;2023-04-03T04:23:31;3.22;;;3.03;;
44606;SDS011;30315;46.072;14.474;2023-04-03T04:25:59;3.13;;;2.92;;
44606;SDS011;30315;46.072;14.474;2023-04-03T04:28:29;3.65;;;3.42;;
44606;SDS011;30315;46.072;14.474;2023-04-03T04:30:58;3.30;;;3.10;;
44606;SDS011;30315;46.072;14.474;2023-04-03T04:33:26;3.42;;;3.22;;
44606;SDS011;30315;46.072;14.474;2023-04-03T04:35:56;3.70;;;3.40;;
44606;SDS011;30315;46.072;14.474;2023-04-03T04:38:23;3.58;;;3.00;;
44606;SDS011;30315;46.072;14.474;2023-04-03T04:40:52;3.13;;;2.92;;
44606;SDS011;30315;46.072;14.474;2023-04-03T04:43:19;3.10;;;2.90;;
44606;SDS011;30315;46.072;14.474;2023-04-03T04:45:59;3.42;;;3.13;;
44606;SDS011;30315;46.072;14.474;2023-04-03T04:48:43;6.47;;;3.55;;
44606;SDS011;30315;46.072;14.474;2023-04-03T04:51:11;3.78;;;3.45;;
44606;SDS011;30315;46.072;14.474;2023-04-03T04:53:38;4.43;;;4.13;;
44606;SDS011;30315;46.072;14.474;2023-04-03T04:56:07;4.15;;;3.85;;
44606;SDS011;30315;46.072;14.474;2023-04-03T04:58:35;4.87;;;4.47;;
44606;SDS011;30315;46.072;14.474;2023-04-03T05:01:04;4.80;;;4.50;;
44606;SDS011;30315;46.072;14.474;2023-04-03T05:03:36;6.43;;;4.32;;
44606;SDS011;30315;46.072;14.474;2023-04-03T05:06:04;3.75;;;3.45;;
44606;SDS011;30315;46.072;14.474;2023-04-03T05:08:33;3.72;;;3.50;;
44606;SDS011;30315;46.072;14.474;2023-04-03T05:11:00;5.65;;;3.58;;
44606;SDS011;30315;46.072;14.474;2023-04-03T05:13:28;3.22;;;3.03;;
44606;SDS011;30315;46.072;14.474;2023-04-03T05:15:56;3.30;;;3.00;;
44606;SDS011;30315;46.072;14.474;2023-04-03T05:18:23;4.93;;;3.53;;
44606;SDS011;30315;46.072;14.474;2023-04-03T05:20:52;3.65;;;3.45;;
44606;SDS011;30315;46.072;14.474;2023-04-03T05:23:21;3.63;;;3.42;;
44606;SDS011;30315;46.072;14.474;2023-04-03T05:25:48;3.10;;;2.90;;
44606;SDS011;30315;46.072;14.474;2023-04-03T05:28:16;3.72;;;3.40;;
44606;SDS011;30315;46.072;14.474;2023-04-03T05:30:43;3.35;;;3.15;;
44606;SDS011;30315;46.072;14.474;2023-04-03T05:33:11;4.82;;;3.78;;
44606;SDS011;30315;46.072;14.474;2023-04-03T05:35:44;2.78;;;2.63;;
44606;SDS011;30315;46.072;14.474;2023-04-03T05:38:17;4.57;;;3.72;;
44606;SDS011;30315;46.072;14.474;2023-04-03T05:40:44;3.33;;;3.03;;
44606;SDS011;30315;46.072;14.474;2023-04-03T05:43:11;3.97;;;3.78;;
44606;SDS011;30315;46.072;14.474;2023-04-03T05:45:40;3.72;;;3.42;;
44606;SDS011;30315;46.072;14.474;2023-04-03T05:48:12;5.32;;;3.90;;
44606;SDS011;30315;46.072;14.474;2023-04-03T05:50:40;3.33;;;3.13;;
44606;SDS011;30315;46.072;14.474;2023-04-03T05:53:15;3.58;;;3.38;;
44606;SDS011;30315;46.072;14.474;2023-04-03T05:55:48;5.82;;;3.92;;
44606;SDS011;30315;46.072;14.474;2023-04-03T05:58:15;4.75;;;3.47;;
44606;SDS011;30315;46.072;14.474;2023-04-03T06:00:45;3.67;;;3.42;;
44606;SDS011;30315;46.072;14.474;2023-04-03T06:03:12;3.67;;;3.13;;
44606;SDS011;30315;46.072;14.474;2023-04-03T06:05:39;3.53;;;3.33;;
44606;SDS011;30315;46.072;14.474;2023-04-03T06:08:06;3.75;;;3.50;;
44606;SDS011;30315;46.072;14.474;2023-04-03T06:10:35;4.10;;;3.80;;
44606;SDS011;30315;46.072;14.474;2023-04-03T06:13:02;3.92;;;3.20;;
44606;SDS011;30315;46.072;14.474;2023-04-03T06:15:29;3.65;;;3.45;;
44606;SDS011;30315;46.072;14.474;2023-04-03T06:18:03;3.33;;;3.13;;
44606;SDS011;30315;46.072;14.474;2023-04-03T06:20:30;4.55;;;4.15;;
44606;SDS011;30315;46.072;14.474;2023-04-03T06:22:58;3.60;;;3.40;;
44606;SDS011;30315;46.072;14.474;2023-04-03T06:25:26;3.17;;;2.97;;
44606;SDS011;30315;46.072;14.474;2023-04-03T06:27:54;3.63;;;3.38;;
44606;SDS011;30315;46.072;14.474;2023-04-03T06:30:22;3.60;;;3.35;;
44606;SDS011;30315;46.072;14.474;2023-04-03T06:32:49;2.92;;;2.72;;
44606;SDS011;30315;46.072;14.474;2023-04-03T06:35:17;3.20;;;3.00;;
44606;SDS011;30315;46.072;14.474;2023-04-03T06:37:44;3.00;;;2.80;;
44606;SDS011;30315;46.072;14.474;2023-04-03T06:40:15;3.22;;;2.92;;
44606;SDS011;30315;46.072;14.474;2023-04-03T06:42:47;3.17;;;2.97;;
44606;SDS011;30315;46.072;14.474;2023-04-03T06:45:16;3.23;;;3.03;;
44606;SDS011;30315;46.072;14.474;2023-04-03T06:47:43;3.20;;;2.85;;
44606;SDS011;30315;46.072;14.474;2023-04-03T06:50:11;3.03;;;2.85;;
44606;SDS011;30315;46.072;14.474;2023-04-03T06:52:40;3.05;;;2.85;;
44606;SDS011;30315;46.072;14.474;2023-04-03T06:55:08;3.47;;;2.90;;
44606;SDS011;30315;46.072;14.474;2023-04-03T06:57:36;2.72;;;2.53;;
44606;SDS011;30315;46.072;14.474;2023-04-03T07:00:04;3.42;;;3.13;;
44606;SDS011;30315;46.072;14.474;2023-04-03T07:02:32;2.95;;;2.75;;
44606;SDS011;30315;46.072;14.474;2023-04-03T07:04:59;3.28;;;2.80;;
44606;SDS011;30315;46.072;14.474;2023-04-03T07:07:26;2.80;;;2.63;;
44606;SDS011;30315;46.072;14.474;2023-04-03T07:09:53;2.90;;;2.70;;
44606;SDS011;30315;46.072;14.474;2023-04-03T07:12:20;2.85;;;2.75;;
44606;SDS011;30315;46.072;14.474;2023-04-03T07:14:47;2.08;;;1.98;;
44606;SDS011;30315;46.072;14.474;2023-04-03T07:17:14;2.30;;;2.10;;
44606;SDS011;30315;46.072;14.474;2023-04-03T07:19:41;2.28;;;2.17;;
44606;SDS011;30315;46.072;14.474;2023-04-03T07:22:08;2.22;;;2.13;;
44606;SDS011;30315;46.072;14.474;2023-04-03T07:24:35;2.10;;;2.00;;
44606;SDS011;30315;46.072;14.474;2023-04-03T07:27:02;2.42;;;2.30;;
44606;SDS011;30315;46.072;14.474;2023-04-03T07:29:29;2.50;;;2.30;;
44606;SDS011;30315;46.072;14.474;2023-04-03T07:31:56;2.40;;;2.30;;
44606;SDS011;30315;46.072;14.474;2023-04-03T07:34:23;3.22;;;2.10;;
44606;SDS011;30315;46.072;14.474;2023-04-03T07:36:51;2.05;;;1.95;;
44606;SDS011;30315;46.072;14.474;2023-04-03T07:39:18;2.22;;;2.13;;
44606;SDS011;30315;46.072;14.474;2023-04-03T07:41:45;2.03;;;1.83;;
44606;SDS011;30315;46.072;14.474;2023-04-03T07:44:12;2.55;;;2.10;;
44606;SDS011;30315;46.072;14.474;2023-04-03T07:46:38;2.13;;;2.00;;
44606;SDS011;30315;46.072;14.474;2023-04-03T07:49:06;2.20;;;2.10;;
44606;SDS011;30315;46.072;14.474;2023-04-03T07:51:33;4.20;;;1.60;;
44606;SDS011;30315;46.072;14.474;2023-04-03T07:54:00;2.55;;;2.35;;
44606;SDS011;30315;46.072;14.474;2023-04-03T07:56:28;1.83;;;1.73;;
44606;SDS011;30315;46.072;14.474;2023-04-03T07:58:55;3.28;;;2.70;;
44606;SDS011;30315;46.072;14.474;2023-04-03T08:01:22;2.05;;;1.60;;
44606;SDS011;30315;46.072;14.474;2023-04-03T08:03:49;2.45;;;1.77;;
44606;SDS011;30315;46.072;14.474;2023-04-03T08:06:17;2.08;;;1.98;;
44606;SDS011;30315;46.072;14.474;2023-04-03T08:08:54;1.98;;;1.88;;
44606;SDS011;30315;46.072;14.474;2023-04-03T08:11:22;1.95;;;1.85;;
44606;SDS011;30315;46.072;14.474;2023-04-03T08:13:49;1.90;;;1.80;;
44606;SDS011;30315;46.072;14.474;2023-04-03T08:16:19;2.17;;;2.08;;
44606;SDS011;30315;46.072;14.474;2023-04-03T08:18:48;1.77;;;1.67;;
44606;SDS011;30315;46.072;14.474;2023-04-03T08:21:15;3.88;;;2.63;;
44606;SDS011;30315;46.072;14.474;2023-04-03T08:23:43;3.08;;;2.40;;
44606;SDS011;30315;46.072;14.474;2023-04-03T08:26:13;2.75;;;2.17;;
44606;SDS011;30315;46.072;14.474;2023-04-03T08:28:42;2.10;;;2.00;;
44606;SDS011;30315;46.072;14.474;2023-04-03T08:31:13;2.00;;;1.90;;
44606;SDS011;30315;46.072;14.474;2023-04-03T08:33:42;3.63;;;1.60;;
44606;SDS011;30315;46.072;14.474;2023-04-03T08:36:16;1.77;;;1.60;;
44606;SDS011;30315;46.072;14.474;2023-04-03T08:38:48;1.70;;;1.60;;
44606;SDS011;30315;46.072;14.474;2023-04-03T08:41:20;1.50;;;1.40;;
44606;SDS011;30315;46.072;14.474;2023-04-03T08:47:02;3.72;;;1.90;;
44606;SDS011;30315;46.072;14.474;2023-04-03T08:49:28;1.85;;;1.50;;
44606;SDS011;30315;46.072;14.474;2023-04-03T08:52:04;1.83;;;1.55;;
44606;SDS011;30315;46.072;14.474;2023-04-03T08:54:49;1.88;;;1.77;;
44606;SDS011;30315;46.072;14.474;2023-04-03T08:57:24;1.63;;;1.52;;
44606;SDS011;30315;46.072;14.474;2023-04-03T09:05:16;3.22;;;1.80;;
44606;SDS011;30315;46.072;14.474;2023-04-03T09:08:06;1.50;;;1.48;;
44606;SDS011;30315;46.072;14.474;2023-04-03T09:10:42;1.67;;;1.58;;
44606;SDS011;30315;46.072;14.474;2023-04-03T09:16:18;1.40;;;1.40;;
44606;SDS011;30315;46.072;14.474;2023-04-03T09:18:57;1.70;;;1.60;;
44606;SDS011;30315;46.072;14.474;2023-04-03T09:21:46;2.33;;;1.50;;
44606;SDS011;30315;46.072;14.474;2023-04-03T09:24:15;3.92;;;1.60;;
44606;SDS011;30315;46.072;14.474;2023-04-03T09:26:55;1.65;;;1.55;;
44606;SDS011;30315;46.072;14.474;2023-04-03T09:29:30;1.83;;;1.50;;
44606;SDS011;30315;46.072;14.474;2023-04-03T09:31:59;3.63;;;1.70;;
44606;SDS011;30315;46.072;14.474;2023-04-03T09:37:05;1.60;;;1.50;;
44606;SDS011;30315;46.072;14.474;2023-04-03T09:39:46;1.90;;;1.80;;
44606;SDS011;30315;46.072;14.474;2023-04-03T09:42:21;2.00;;;1.80;;
44606;SDS011;30315;46.072;14.474;2023-04-03T09:44:54;1.60;;;1.50;;
44606;SDS011;30315;46.072;14.474;2023-04-03T09:47:28;1.92;;;1.45;;
44606;SDS011;30315;46.072;14.474;2023-04-03T09:52:36;1.80;;;1.70;;
44606;SDS011;30315;46.072;14.474;2023-04-03T09:55:06;1.80;;;1.70;;
44606;SDS011;30315;46.072;14.474;2023-04-03T09:57:40;1.50;;;1.40;;
44606;SDS011;30315;46.072;14.474;2023-04-03T10:00:41;1.95;;;1.48;;
44606;SDS011;30315;46.072;14.474;2023-04-03T10:03:03;1.60;;;1.50;;
44606;SDS011;30315;46.072;14.474;2023-04-03T10:05:36;1.40;;;1.30;;
44606;SDS011;30315;46.072;14.474;2023-04-03T10:10:44;1.80;;;1.70;;
44606;SDS011;30315;46.072;14.474;2023-04-03T10:13:15;1.48;;;1.40;;
44606;SDS011;30315;46.072;14.474;2023-04-03T10:24:16;1.40;;;1.40;;
44606;SDS011;30315;46.072;14.474;2023-04-03T10:26:58;1.42;;;1.33;;
44606;SDS011;30315;46.072;14.474;2023-04-03T10:29:43;1.60;;;1.50;;
44606;SDS011;30315;46.072;14.474;2023-04-03T10:35:12;1.60;;;1.40;;
44606;SDS011;30315;46.072;14.474;2023-04-03T10:40:59;1.75;;;1.63;;
44606;SDS011;30315;46.072;14.474;2023-04-03T10:43:45;2.05;;;1.30;;
44606;SDS011;30315;46.072;14.474;2023-04-03T10:46:49;1.40;;;1.30;;
44606;SDS011;30315;46.072;14.474;2023-04-03T10:49:34;1.38;;;1.30;;
44606;SDS011;30315;46.072;14.474;2023-04-03T10:52:46;1.42;;;1.33;;
44606;SDS011;30315;46.072;14.474;2023-04-03T10:57:58;1.20;;;1.20;;
44606;SDS011;30315;46.072;14.474;2023-04-03T11:00:34;1.50;;;1.40;;
44606;SDS011;30315;46.072;14.474;2023-04-03T11:03:15;1.55;;;1.45;;
44606;SDS011;30315;46.072;14.474;2023-04-03T11:05:53;1.52;;;1.50;;
44606;SDS011;30315;46.072;14.474;2023-04-03T11:11:48;1.60;;;1.50;;
44606;SDS011;30315;46.072;14.474;2023-04-03T11:14:39;1.48;;;1.38;;
44606;SDS011;30315;46.072;14.474;2023-04-03T11:22:49;2.40;;;1.40;;
44606;SDS011;30315;46.072;14.474;2023-04-03T11:25:31;1.83;;;1.40;;
44606;SDS011;30315;46.072;14.474;2023-04-03T11:28:28;1.77;;;1.40;;
44606;SDS011;30315;46.072;14.474;2023-04-03T11:31:13;2.15;;;1.50;;
44606;SDS011;30315;46.072;14.474;2023-04-03T11:36:54;1.50;;;1.40;;
44606;SDS011;30315;46.072;14.474;2023-04-03T11:39:23;3.88;;;1.60;;
44606;SDS011;30315;46.072;14.474;2023-04-03T11:42:14;1.23;;;1.13;;
44606;SDS011;30315;46.072;14.474;2023-04-03T11:44:42;2.45;;;1.40;;
44606;SDS011;30315;46.072;14.474;2023-04-03T11:47:10;3.78;;;1.17;;
44606;SDS011;30315;46.072;14.474;2023-04-03T11:50:02;1.30;;;1.20;;
44606;SDS011;30315;46.072;14.474;2023-04-03T12:05:53;1.15;;;1.15;;
44606;SDS011;30315;46.072;14.474;2023-04-03T12:08:46;1.33;;;1.33;;
44606;SDS011;30315;46.072;14.474;2023-04-03T12:11:24;1.40;;;1.30;;
44606;SDS011;30315;46.072;14.474;2023-04-03T12:22:04;1.08;;;1.08;;
44606;SDS011;30315;46.072;14.474;2023-04-03T12:24:42;1.20;;;1.20;;
44606;SDS011;30315;46.072;14.474;2023-04-03T12:27:17;1.67;;;1.27;;
44606;SDS011;30315;46.072;14.474;2023-04-03T12:32:51;1.65;;;1.35;;
44606;SDS011;30315;46.072;14.474;2023-04-03T12:36:03;2.90;;;1.60;;
44606;SDS011;30315;46.072;14.474;2023-04-03T12:47:22;1.45;;;1.35;;
44606;SDS011;30315;46.072;14.474;2023-04-03T12:49:55;1.33;;;1.23;;
44606;SDS011;30315;46.072;14.474;2023-04-03T12:52:35;1.73;;;1.63;;
44606;SDS011;30315;46.072;14.474;2023-04-03T12:55:15;1.00;;;1.00;;
44606;SDS011;30315;46.072;14.474;2023-04-03T12:57:45;1.27;;;1.27;;
44606;SDS011;30315;46.072;14.474;2023-04-03T13:00:22;1.90;;;1.15;;
44606;SDS011;30315;46.072;14.474;2023-04-03T13:03:02;1.20;;;1.10;;
44606;SDS011;30315;46.072;14.474;2023-04-03T13:05:32;1.40;;;1.30;;
44606;SDS011;30315;46.072;14.474;2023-04-03T13:08:04;2.60;;;1.10;;
44606;SDS011;30315;46.072;14.474;2023-04-03T13:10:45;1.10;;;1.00;;
44606;SDS011;30315;46.072;14.474;2023-04-03T13:13:20;1.60;;;1.50;;
44606;SDS011;30315;46.072;14.474;2023-04-03T13:15:49;2.38;;;1.00;;
44606;SDS011;30315;46.072;14.474;2023-04-03T13:18:25;1.40;;;1.30;;
44606;SDS011;30315;46.072;14.474;2023-04-03T13:20:53;1.30;;;1.20;;
44606;SDS011;30315;46.072;14.474;2023-04-03T13:23:51;1.38;;;1.27;;
44606;SDS011;30315;46.072;14.474;2023-04-03T13:26:40;0.90;;;0.90;;
44606;SDS011;30315;46.072;14.474;2023-04-03T13:29:30;1.13;;;0.80;;
44606;SDS011;30315;46.072;14.474;2023-04-03T13:32:01;1.77;;;1.23;;
44606;SDS011;30315;46.072;14.474;2023-04-03T13:34:37;1.38;;;1.10;;
44606;SDS011;30315;46.072;14.474;2023-04-03T13:37:29;0.90;;;0.90;;
44606;SDS011;30315;46.072;14.474;2023-04-03T13:42:41;1.10;;;1.10;;
44606;SDS011;30315;46.072;14.474;2023-04-03T13:45:21;1.20;;;1.10;;
44606;SDS011;30315;46.072;14.474;2023-04-03T13:51:37;2.72;;;1.30;;
44606;SDS011;30315;46.072;14.474;2023-04-03T13:53:47;0.85;;;0.85;;
44606;SDS011;30315;46.072;14.474;2023-04-03T13:56:32;1.10;;;1.00;;
44606;SDS011;30315;46.072;14.474;2023-04-03T14:04:17;0.80;;;0.80;;
44606;SDS011;30315;46.072;14.474;2023-04-03T14:06:49;3.47;;;0.90;;
44606;SDS011;30315;46.072;14.474;2023-04-03T14:09:18;1.13;;;0.90;;
44606;SDS011;30315;46.072;14.474;2023-04-03T14:11:48;1.08;;;1.08;;
44606;SDS011;30315;46.072;14.474;2023-04-03T14:14:18;1.13;;;1.02;;
44606;SDS011;30315;46.072;14.474;2023-04-03T14:16:53;0.95;;;0.95;;
44606;SDS011;30315;46.072;14.474;2023-04-03T14:19:26;0.90;;;0.90;;
44606;SDS011;30315;46.072;14.474;2023-04-03T14:21:56;1.05;;;1.05;;
44606;SDS011;30315;46.072;14.474;2023-04-03T14:24:24;0.93;;;0.93;;
44606;SDS011;30315;46.072;14.474;2023-04-03T14:26:52;1.15;;;1.10;;
44606;SDS011;30315;46.072;14.474;2023-04-03T14:29:21;1.13;;;1.13;;
44606;SDS011;30315;46.072;14.474;2023-04-03T14:31:49;1.27;;;1.17;;
44606;SDS011;30315;46.072;14.474;2023-04-03T14:34:25;0.90;;;0.90;;
44606;SDS011;30315;46.072;14.474;2023-04-03T14:36:52;3.75;;;1.38;;
44606;SDS011;30315;46.072;14.474;2023-04-03T14:39:20;1.38;;;1.27;;
44606;SDS011;30315;46.072;14.474;2023-04-03T14:41:46;1.00;;;1.00;;
44606;SDS011;30315;46.072;14.474;2023-04-03T14:44:13;1.35;;;1.00;;
44606;SDS011;30315;46.072;14.474;2023-04-03T14:46:41;0.90;;;0.90;;
44606;SDS011;30315;46.072;14.474;2023-04-03T14:49:24;2.38;;;1.08;;
44606;SDS011;30315;46.072;14.474;2023-04-03T14:51:55;1.30;;;1.20;;
44606;SDS011;30315;46.072;14.474;2023-04-03T14:54:25;1.27;;;1.27;;
44606;SDS011;30315;46.072;14.474;2023-04-03T14:56:55;1.10;;;1.00;;
44606;SDS011;30315;46.072;14.474;2023-04-03T14:59:23;0.80;;;0.77;;
44606;SDS011;30315;46.072;14.474;2023-04-03T15:01:50;1.10;;;1.10;;
44606;SDS011;30315;46.072;14.474;2023-04-03T15:04:18;1.83;;;1.15;;
44606;SDS011;30315;46.072;14.474;2023-04-03T15:06:47;1.10;;;1.00;;
44606;SDS011;30315;46.072;14.474;2023-04-03T15:09:22;1.23;;;1.13;;
44606;SDS011;30315;46.072;14.474;2023-04-03T15:11:52;1.23;;;1.13;;
44606;SDS011;30315;46.072;14.474;2023-04-03T15:14:21;1.10;;;1.08;;
44606;SDS011;30315;46.072;14.474;2023-04-03T15:17:04;1.15;;;1.15;;
44606;SDS011;30315;46.072;14.474;2023-04-03T15:19:41;1.20;;;1.15;;
44606;SDS011;30315;46.072;14.474;2023-04-03T15:22:18;1.58;;;1.42;;
44606;SDS011;30315;46.072;14.474;2023-04-03T15:24:45;0.90;;;0.90;;
44606;SDS011;30315;46.072;14.474;2023-04-03T15:27:12;1.02;;;1.02;;
44606;SDS011;30315;46.072;14.474;2023-04-03T15:29:41;1.40;;;1.30;;
44606;SDS011;30315;46.072;14.474;2023-04-03T15:32:09;1.30;;;1.20;;
44606;SDS011;30315;46.072;14.474;2023-04-03T15:34:37;1.63;;;1.50;;
44606;SDS011;30315;46.072;14.474;2023-04-03T15:37:05;2.28;;;1.40;;
44606;SDS011;30315;46.072;14.474;2023-04-03T15:39:32;5.85;;;1.50;;
44606;SDS011;30315;46.072;14.474;2023-04-03T15:41:59;2.10;;;1.83;;
44606;SDS011;30315;46.072;14.474;2023-04-03T15:44:32;2.45;;;1.30;;
44606;SDS011;30315;46.072;14.474;2023-04-03T15:47:00;2.95;;;1.27;;
44606;SDS011;30315;46.072;14.474;2023-04-03T15:49:28;1.80;;;1.50;;
44606;SDS011;30315;46.072;14.474;2023-04-03T15:51:56;1.38;;;1.27;;
44606;SDS011;30315;46.072;14.474;2023-04-03T15:54:23;1.05;;;1.05;;
44606;SDS011;30315;46.072;14.474;2023-04-03T15:56:51;1.30;;;1.20;;
44606;SDS011;30315;46.072;14.474;2023-04-03T15:59:18;4.05;;;1.15;;
44606;SDS011;30315;46.072;14.474;2023-04-03T16:01:46;1.30;;;1.20;;
44606;SDS011;30315;46.072;14.474;2023-04-03T16:04:13;1.30;;;1.20;;
44606;SDS011;30315;46.072;14.474;2023-04-03T16:06:42;1.00;;;1.00;;
44606;SDS011;30315;46.072;14.474;2023-04-03T16:09:09;1.20;;;1.20;;
44606;SDS011;30315;46.072;14.474;2023-04-03T16:11:37;1.23;;;1.13;;
44606;SDS011;30315;46.072;14.474;2023-04-03T16:14:06;1.95;;;1.75;;
44606;SDS011;30315;46.072;14.474;2023-04-03T16:16:34;1.63;;;1.45;;
44606;SDS011;30315;46.072;14.474;2023-04-03T16:19:02;1.08;;;1.08;;
44606;SDS011;30315;46.072;14.474;2023-04-03T16:21:30;1.00;;;1.00;;
44606;SDS011;30315;46.072;14.474;2023-04-03T16:23:58;1.00;;;1.00;;
44606;SDS011;30315;46.072;14.474;2023-04-03T16:26:26;1.17;;;1.10;;
44606;SDS011;30315;46.072;14.474;2023-04-03T16:28:53;1.50;;;1.15;;
44606;SDS011;30315;46.072;14.474;2023-04-03T16:31:20;1.63;;;1.52;;
44606;SDS011;30315;46.072;14.474;2023-04-03T16:33:49;1.33;;;1.23;;
44606;SDS011;30315;46.072;14.474;2023-04-03T16:36:16;1.50;;;1.40;;
44606;SDS011;30315;46.072;14.474;2023-04-03T16:38:43;1.60;;;1.50;;
44606;SDS011;30315;46.072;14.474;2023-04-03T16:41:10;2.33;;;1.35;;